Main page
METAR-TAF:

METAR-TAF

Airports :

Campbeltown, Scotland

Campbeltown Airport

latitude: 55-26-14N, longitude: 005-41-11W, elevation: 13 m

Current weather observation

The report was made 9 hours and 20 minutes ago, at 17:20 UTC
Wind 10 kt from the West/Southwest
Temperature 17°C
Humidity 82%
Pressure 1014 hPa
Visibility 10 km or more
Scattered clouds at a height of 4800 ft

METAR: EGEC 231720Z 25010KT 9999 SCT048 17/14 Q1014

Time: 03:40 (02:40 UTC)


TAF: missing

Weather observations and forecasts of more than 4000 airports (METAR and TAF reports).

The available stations are represented by yellow and red dots on the map.

Hover mouse over dot to see the name of the station.

Then click to see weather observations and forecasts.

To change the map : click on the green buttons with a black cross to zoom in, on the green button with a dash to zoom out, or on the green arrows for adjacent maps.


METAR-TAF: